createdAt,value
2023-03-23T15:58:16.745Z,13.75
2023-03-23T15:58:51.181Z,17.60
2023-03-23T15:59:23.518Z,16.52
2023-03-23T16:00:04.863Z,15.30
2023-03-23T16:00:44.736Z,18.30
2023-03-23T16:01:21.839Z,14.07
2023-03-23T16:01:54.314Z,17.48
2023-03-23T16:02:28.333Z,13.47
2023-03-23T16:03:02.235Z,13.90
2023-03-23T16:03:38.440Z,17.85
2023-03-23T16:04:13.913Z,18.77
2023-03-23T16:04:48.056Z,14.73
2023-03-23T16:05:20.460Z,13.25
2023-03-23T16:05:52.756Z,14.02
2023-03-23T16:06:26.636Z,15.55
2023-03-23T16:06:59.572Z,16.25
2023-03-23T16:07:32.008Z,16.92
2023-03-23T16:08:04.854Z,15.13
2023-03-23T16:08:41.050Z,15.20
2023-03-23T16:09:17.876Z,13.82
2023-03-23T16:09:50.361Z,15.80
2023-03-23T16:10:24.004Z,13.95
2023-03-23T16:10:56.435Z,14.63
2023-03-23T16:11:30.187Z,14.32
2023-03-23T16:12:02.480Z,17.23
2023-03-23T16:12:34.770Z,16.35
2023-03-23T16:13:07.345Z,13.95
2023-03-23T16:13:40.053Z,18.47
2023-03-23T16:14:12.445Z,15.55
2023-03-23T16:14:44.985Z,16.85
2023-03-23T16:15:17.388Z,15.80
2023-03-23T16:15:50.088Z,14.63
2023-03-23T16:16:23.986Z,15.88
2023-03-23T16:16:56.528Z,19.25
2023-03-23T16:17:28.913Z,16.52
2023-03-23T16:18:01.428Z,16.70
2023-03-23T16:18:34.286Z,14.75
2023-03-23T16:19:07.364Z,18.27
2023-03-23T16:19:48.971Z,17.85
2023-03-23T16:20:23.058Z,18.52
2023-03-23T16:20:55.480Z,20.98
2023-03-23T16:21:28.038Z,16.08
2023-03-23T16:22:00.530Z,19.17
2023-03-23T16:22:32.976Z,18.88
2023-03-23T16:23:05.490Z,22.67
2023-03-23T16:23:38.256Z,24.77
2023-03-23T16:24:10.736Z,25.75
2023-03-23T16:24:43.081Z,30.97
2023-03-23T16:25:15.748Z,36.50
2023-03-23T16:25:48.041Z,29.08
2023-03-23T16:26:20.629Z,27.45
2023-03-23T16:26:53.082Z,29.98
2023-03-23T16:27:25.506Z,29.15
2023-03-23T16:27:57.774Z,32.03
2023-03-23T16:28:30.734Z,35.60
2023-03-23T16:29:13.932Z,33.47
2023-03-23T16:30:02.865Z,43.47
2023-03-23T16:30:36.478Z,45.47
2023-03-23T16:31:09.106Z,45.35
2023-03-23T16:31:41.592Z,37.97
2023-03-23T16:32:13.994Z,35.47
2023-03-23T16:32:47.564Z,31.13
2023-03-23T16:33:19.937Z,24.88
2023-03-23T16:33:52.310Z,28.42
2023-03-23T16:34:25.018Z,26.67
2023-03-23T16:34:57.300Z,30.13
2023-03-23T16:35:30.542Z,33.70
2023-03-23T16:36:03.227Z,31.70
2023-03-23T16:36:35.630Z,33.33
2023-03-23T16:38:08.234Z,34.72
2023-03-23T16:38:49.140Z,27.05
2023-03-23T16:39:23.660Z,29.23
2023-03-23T16:39:56.041Z,30.00
2023-03-23T16:40:28.410Z,35.60
2023-03-23T16:41:00.712Z,28.35
2023-03-23T16:41:33.050Z,25.95
2023-03-23T16:42:05.876Z,26.40
2023-03-23T16:42:38.451Z,25.58
2023-03-23T16:43:12.064Z,24.95
2023-03-23T16:43:44.546Z,30.10
2023-03-23T16:44:17.004Z,23.48
2023-03-23T16:44:50.998Z,23.83
2023-03-23T16:45:24.279Z,31.60
2023-03-23T16:45:57.416Z,25.10
2023-03-23T16:46:30.697Z,25.98
2023-03-23T16:47:03.288Z,24.58
2023-03-23T16:47:36.283Z,22.50
2023-03-23T16:48:09.464Z,27.17
2023-03-23T16:48:41.887Z,28.08
2023-03-23T16:49:14.182Z,29.00
2023-03-23T16:49:46.838Z,26.45
2023-03-23T16:50:19.291Z,24.17
2023-03-23T16:50:52.174Z,24.98
2023-03-23T16:51:24.822Z,20.70
2023-03-23T16:51:57.386Z,21.77
2023-03-23T16:52:30.057Z,23.25
2023-03-23T16:53:02.516Z,25.20
2023-03-23T16:53:35.089Z,26.45
2023-03-23T16:54:08.126Z,24.75
2023-03-23T16:54:40.740Z,26.88
2023-03-23T16:55:15.029Z,29.05
2023-03-23T16:55:48.648Z,34.55
2023-03-23T16:56:21.446Z,35.05
2023-03-23T16:56:53.811Z,35.50
2023-03-23T16:57:27.188Z,31.45
2023-03-23T16:58:13.256Z,29.77
2023-03-23T16:58:48.766Z,27.73
2023-03-23T16:59:23.199Z,25.15
2023-03-23T16:59:58.929Z,27.60
2023-03-23T17:00:31.796Z,25.25
2023-03-23T17:01:04.772Z,30.75
2023-03-23T17:01:37.268Z,24.88
2023-03-23T17:02:12.760Z,26.67
2023-03-23T17:02:45.145Z,24.58
2023-03-23T17:03:21.289Z,24.05
2023-03-23T17:03:54.579Z,31.23
2023-03-23T17:04:26.916Z,27.80
2023-03-23T17:04:59.559Z,25.70
2023-03-23T17:05:31.866Z,24.73
2023-03-23T17:06:04.753Z,28.40
2023-03-23T17:06:37.945Z,21.95
2023-03-23T17:07:10.747Z,21.33
2023-03-23T17:07:43.313Z,23.40
2023-03-23T17:08:15.849Z,22.38
2023-03-23T17:08:48.174Z,25.65
2023-03-23T17:09:20.488Z,30.88
2023-03-23T17:09:52.854Z,25.00
2023-03-23T17:10:28.336Z,24.92
2023-03-23T17:11:00.975Z,28.25
2023-03-23T17:11:33.425Z,28.23
2023-03-23T17:12:06.061Z,27.10
2023-03-23T17:12:38.445Z,27.63
2023-03-23T17:13:11.241Z,27.23
2023-03-23T17:13:43.528Z,26.63
2023-03-23T17:14:15.857Z,24.58
2023-03-23T17:14:48.500Z,32.47
2023-03-23T17:15:20.854Z,30.87
2023-03-23T17:15:54.091Z,30.80
2023-03-23T17:17:12.666Z,27.42
2023-03-23T17:17:45.151Z,30.13
2023-03-23T17:18:17.686Z,33.65
2023-03-23T17:18:50.384Z,30.35
2023-03-23T17:19:22.874Z,33.45
2023-03-23T17:19:55.259Z,34.15
2023-03-23T17:20:27.940Z,31.58
2023-03-23T17:21:00.446Z,39.47
2023-03-23T17:21:34.200Z,40.97
2023-03-23T17:22:06.671Z,40.50
2023-03-23T17:22:39.404Z,42.08
2023-03-23T17:23:11.754Z,38.63
2023-03-23T17:23:44.077Z,36.53
2023-03-23T17:24:16.466Z,29.50
2023-03-23T17:24:49.268Z,27.90
2023-03-23T17:25:21.551Z,25.80
2023-03-23T17:25:54.395Z,21.30
2023-03-23T17:26:26.699Z,23.07
2023-03-23T17:26:58.964Z,24.95
2023-03-23T17:27:31.822Z,25.60
2023-03-23T17:28:17.486Z,27.02
2023-03-23T17:28:51.116Z,33.42
2023-03-23T17:29:23.772Z,23.73
2023-03-23T17:29:56.585Z,25.00
2023-03-23T17:30:28.956Z,23.27
2023-03-23T17:31:01.820Z,24.83
2023-03-23T17:31:34.311Z,22.02
2023-03-23T17:32:06.753Z,24.27
2023-03-23T17:32:39.326Z,25.52
2023-03-23T17:33:12.058Z,28.80
2023-03-23T17:33:44.885Z,27.15
2023-03-23T17:34:19.841Z,27.45
2023-03-23T17:34:53.054Z,24.52
2023-03-23T17:35:26.100Z,23.98
2023-03-23T17:35:58.457Z,23.83
2023-03-23T17:36:31.212Z,24.00
2023-03-23T17:37:03.898Z,24.02
2023-03-23T17:37:37.988Z,23.73
2023-03-23T17:38:10.767Z,27.55
2023-03-23T17:38:43.550Z,24.00
2023-03-23T17:39:16.204Z,25.52
2023-03-23T17:39:48.601Z,26.98
2023-03-23T17:40:20.906Z,24.92
2023-03-23T17:40:57.171Z,25.45
2023-03-23T17:41:29.684Z,27.92
2023-03-23T17:42:02.356Z,26.58
2023-03-23T17:42:34.828Z,28.75
2023-03-23T17:43:07.597Z,29.40
2023-03-23T17:43:41.352Z,36.25
2023-03-23T17:44:13.886Z,40.75
2023-03-23T17:44:46.536Z,53.42
2023-03-23T17:45:18.881Z,48.75
2023-03-23T17:45:51.302Z,62.35
2023-03-23T17:46:23.768Z,59.72
2023-03-23T17:47:01.298Z,81.10
2023-03-23T17:47:34.347Z,88.10
2023-03-23T17:48:08.182Z,84.88
2023-03-23T17:48:41.615Z,69.73
2023-03-23T17:49:13.986Z,64.78
2023-03-23T17:49:46.748Z,65.18
2023-03-23T17:50:19.034Z,58.78
2023-03-23T17:50:54.369Z,55.92
2023-03-23T17:51:26.852Z,59.47
2023-03-23T17:51:59.756Z,56.38
2023-03-23T17:52:32.321Z,39.33
2023-03-23T17:53:05.143Z,30.48
2023-03-23T17:53:37.664Z,35.00
2023-03-23T17:54:10.051Z,33.67
2023-03-23T17:54:42.673Z,34.03
2023-03-23T17:55:14.966Z,31.73
2023-03-23T17:55:47.396Z,32.17
2023-03-23T17:56:19.641Z,34.22
2023-03-23T17:56:54.659Z,40.58
2023-03-23T17:57:27.065Z,46.20
2023-03-23T17:57:59.505Z,48.80
2023-03-23T17:58:32.776Z,48.67
2023-03-23T17:59:05.053Z,42.92
2023-03-23T17:59:38.040Z,48.27
2023-03-23T18:00:11.506Z,45.50
2023-03-23T18:00:43.883Z,42.58
2023-03-23T18:01:16.531Z,44.00
2023-03-23T18:01:49.939Z,40.90
2023-03-23T18:02:22.452Z,36.10
2023-03-23T18:02:56.806Z,41.42
2023-03-23T18:03:29.536Z,42.40
2023-03-23T18:04:03.933Z,48.00
2023-03-23T18:04:36.230Z,46.60
2023-03-23T18:05:10.085Z,52.87
2023-03-23T18:05:42.689Z,42.58
2023-03-23T18:06:15.185Z,41.25
2023-03-23T18:06:47.958Z,40.22
2023-03-23T18:07:23.803Z,37.75
2023-03-23T18:07:56.094Z,39.45
2023-03-23T18:08:29.120Z,33.25
2023-03-23T18:09:01.517Z,33.85
2023-03-23T18:09:33.908Z,30.27
2023-03-23T18:10:13.248Z,28.65
2023-03-23T18:10:47.438Z,31.17
2023-03-23T18:11:19.890Z,31.00
2023-03-23T18:11:52.566Z,28.15
2023-03-23T18:12:25.042Z,30.05
2023-03-23T18:12:57.351Z,27.63
2023-03-23T18:13:31.013Z,23.75
2023-03-23T18:14:04.310Z,24.88
2023-03-23T18:14:39.399Z,24.58
2023-03-23T18:15:12.504Z,29.40
2023-03-23T18:15:46.664Z,26.42
2023-03-23T18:16:19.844Z,24.07
2023-03-23T18:16:53.378Z,26.77
2023-03-23T18:17:26.581Z,28.35
2023-03-23T18:18:04.169Z,25.77
2023-03-23T18:18:36.627Z,26.70
2023-03-23T18:19:09.877Z,25.05
2023-03-23T18:19:44.160Z,27.48
2023-03-23T18:20:16.742Z,27.73
2023-03-23T18:20:54.262Z,28.60
2023-03-23T18:21:27.558Z,23.67
2023-03-23T18:22:00.290Z,25.00
2023-03-23T18:22:33.104Z,25.95
2023-03-23T18:23:07.203Z,29.17
2023-03-23T18:23:49.324Z,29.80
2023-03-23T18:24:29.845Z,29.48
2023-03-23T18:25:03.142Z,29.67
2023-03-23T18:25:35.425Z,31.77
2023-03-23T18:26:11.511Z,29.92
2023-03-23T18:26:43.948Z,27.50
2023-03-23T18:27:16.506Z,26.30
2023-03-23T18:27:48.898Z,28.83
2023-03-23T18:28:22.408Z,27.27
2023-03-23T18:28:54.851Z,29.05
2023-03-23T18:29:27.294Z,28.48
2023-03-23T18:29:59.732Z,26.58
2023-03-23T18:30:32.874Z,26.20
2023-03-23T18:31:09.822Z,30.20
2023-03-23T18:31:43.350Z,27.63
2023-03-23T18:32:17.416Z,26.95
2023-03-23T18:32:49.722Z,28.33
2023-03-23T18:33:22.508Z,28.73
2023-03-23T18:33:55.599Z,29.85
2023-03-23T18:34:28.363Z,27.65
2023-03-23T18:35:01.094Z,30.80
2023-03-23T18:35:33.574Z,28.27
2023-03-23T18:36:07.498Z,23.73
2023-03-23T18:36:40.110Z,25.88
2023-03-23T18:37:12.904Z,24.50
2023-03-23T18:37:56.268Z,24.95
2023-03-23T18:38:28.946Z,24.67
2023-03-23T18:39:01.282Z,27.83
2023-03-23T18:39:38.191Z,23.50
2023-03-23T18:40:11.201Z,25.27
2023-03-23T18:40:44.563Z,27.55
2023-03-23T18:41:17.562Z,30.02
2023-03-23T18:41:49.872Z,33.92
2023-03-23T18:42:22.365Z,42.28
2023-03-23T18:42:55.536Z,36.05
2023-03-23T18:43:28.655Z,31.20
2023-03-23T18:44:01.125Z,24.20
2023-03-23T18:44:33.701Z,21.60
2023-03-23T18:45:06.981Z,21.77
2023-03-23T18:45:39.578Z,24.50
2023-03-23T18:46:12.131Z,28.00
2023-03-23T18:46:44.613Z,26.30
2023-03-23T18:47:17.137Z,24.08
2023-03-23T18:47:49.530Z,24.70
2023-03-23T18:48:22.810Z,25.40
2023-03-23T18:48:55.883Z,30.05
2023-03-23T18:49:29.814Z,26.88
2023-03-23T18:50:02.158Z,30.93
2023-03-23T18:50:34.528Z,28.40
2023-03-23T18:51:07.559Z,24.17
2023-03-23T18:51:40.088Z,24.08
2023-03-23T18:52:12.387Z,21.08
2023-03-23T18:52:44.923Z,24.25
2023-03-23T18:53:17.672Z,23.92
2023-03-23T18:53:50.022Z,23.73
2023-03-23T18:54:22.413Z,23.17
2023-03-23T18:54:55.008Z,20.17
2023-03-23T18:55:28.546Z,21.67
2023-03-23T18:56:07.176Z,19.65
2023-03-23T18:56:39.814Z,20.40
2023-03-23T18:57:12.539Z,22.02
2023-03-23T18:57:44.899Z,24.90
2023-03-23T18:58:17.845Z,24.58
2023-03-23T18:58:52.102Z,22.55
2023-03-23T18:59:26.380Z,22.42
2023-03-23T18:59:58.775Z,20.23
2023-03-23T19:00:32.866Z,17.45
2023-03-23T19:01:07.332Z,18.27
2023-03-23T19:01:39.686Z,19.67
2023-03-23T19:02:13.981Z,20.85
2023-03-23T19:02:46.397Z,19.95
2023-03-23T19:03:25.110Z,19.02
2023-03-23T19:03:57.562Z,17.95
2023-03-23T19:04:31.986Z,20.02
2023-03-23T19:05:04.679Z,17.95
2023-03-23T19:05:38.931Z,19.33
2023-03-23T19:06:21.815Z,20.35
2023-03-23T19:06:54.476Z,23.70
2023-03-23T19:07:26.970Z,19.80
2023-03-23T19:08:47.020Z,18.25
2023-03-23T19:09:19.416Z,19.02
2023-03-23T19:09:51.840Z,20.35
2023-03-23T19:10:24.159Z,21.17
2023-03-23T19:10:58.483Z,22.73
2023-03-23T19:11:31.086Z,25.67
2023-03-23T19:12:03.644Z,22.05
2023-03-23T19:12:36.184Z,20.30
2023-03-23T19:13:09.155Z,20.10
2023-03-23T19:13:53.907Z,21.05
2023-03-23T19:14:31.035Z,19.38
2023-03-23T19:15:04.080Z,18.27
2023-03-23T19:15:40.230Z,18.38
2023-03-23T19:16:12.690Z,17.33
2023-03-23T19:16:53.996Z,21.10
2023-03-23T19:17:27.261Z,19.63
2023-03-23T19:17:59.823Z,21.45
2023-03-23T19:18:32.437Z,19.97
2023-03-23T19:19:14.266Z,21.98
2023-03-23T19:19:46.619Z,28.08
2023-03-23T19:20:33.940Z,32.33
2023-03-23T19:21:15.666Z,32.75
2023-03-23T19:21:50.421Z,31.17
2023-03-23T19:22:23.005Z,27.75
2023-03-23T19:22:55.666Z,34.97
2023-03-23T19:23:28.460Z,40.05
2023-03-23T19:24:02.094Z,37.75
2023-03-23T19:24:34.869Z,36.43
2023-03-23T19:25:08.588Z,41.42
2023-03-23T19:25:41.203Z,93.75
2023-03-23T19:26:19.520Z,165.15
2023-03-23T19:26:52.140Z,155.50
2023-03-23T19:27:24.718Z,81.60
2023-03-23T19:29:15.498Z,99.25
2023-03-23T19:29:27.438Z,79.35
2023-03-23T19:29:59.858Z,63.53
2023-03-23T19:30:32.199Z,65.00
2023-03-23T19:31:05.726Z,76.53
2023-03-23T19:31:38.936Z,53.78
2023-03-23T19:32:11.499Z,39.92
2023-03-23T19:32:43.853Z,33.60
2023-03-23T19:33:16.863Z,36.03
2023-03-23T19:33:49.313Z,36.50
2023-03-23T19:34:22.175Z,41.55
2023-03-23T19:34:54.904Z,37.78
2023-03-23T19:35:27.461Z,39.92
2023-03-23T19:36:09.154Z,37.27
2023-03-23T19:36:53.820Z,39.08
2023-03-23T19:37:28.395Z,34.42
2023-03-23T19:38:00.939Z,45.40
2023-03-23T19:38:33.361Z,61.58
2023-03-23T19:39:06.518Z,49.95
2023-03-23T19:39:41.585Z,46.55
2023-03-23T19:40:35.647Z,58.35
2023-03-23T19:41:08.181Z,54.60
2023-03-23T19:41:41.913Z,44.13
2023-03-23T19:42:19.006Z,44.73
2023-03-23T19:42:51.591Z,46.15
2023-03-23T19:43:24.907Z,50.35
2023-03-23T19:43:59.437Z,47.97
2023-03-23T19:44:32.295Z,48.35
2023-03-23T19:45:05.112Z,45.83
2023-03-23T19:45:37.850Z,45.05
2023-03-23T19:46:10.755Z,46.40
2023-03-23T19:46:43.206Z,48.97
2023-03-23T19:47:16.634Z,49.67
2023-03-23T19:47:49.591Z,43.67
2023-03-23T19:48:22.092Z,47.55
2023-03-23T19:48:54.679Z,45.78
2023-03-23T19:49:27.230Z,48.42
2023-03-23T19:50:01.106Z,51.17
2023-03-23T19:50:36.736Z,50.70
2023-03-23T19:51:11.600Z,48.90
2023-03-23T19:51:43.869Z,47.40
2023-03-23T19:52:18.805Z,52.60
2023-03-23T19:52:51.317Z,48.95
2023-03-23T19:53:24.362Z,47.17
2023-03-23T19:53:57.704Z,49.22
2023-03-23T19:54:29.983Z,51.88
2023-03-23T19:55:02.277Z,50.90
2023-03-23T19:55:34.773Z,50.45
2023-03-23T19:56:12.105Z,46.67
2023-03-23T19:56:45.215Z,48.05
2023-03-23T19:57:17.597Z,45.05
2023-03-23T19:57:50.816Z,47.33
2023-03-23T19:58:23.184Z,43.10
2023-03-23T19:58:55.644Z,46.27
2023-03-23T19:59:28.684Z,46.13
2023-03-23T20:00:01.005Z,45.17
2023-03-23T20:00:38.121Z,48.80
2023-03-23T20:01:10.671Z,43.53
2023-03-23T20:01:44.158Z,41.28
2023-03-23T20:02:17.306Z,41.25
2023-03-23T20:02:49.699Z,43.88
2023-03-23T20:03:22.987Z,43.63
2023-03-23T20:03:59.952Z,44.15
2023-03-23T20:04:32.669Z,42.47
2023-03-23T20:05:05.470Z,40.78
2023-03-23T20:05:38.832Z,38.17
2023-03-23T20:06:15.277Z,37.85
2023-03-23T20:06:48.096Z,35.15
2023-03-23T20:07:21.464Z,35.45
2023-03-23T20:07:54.204Z,34.90
2023-03-23T20:08:26.873Z,34.60
2023-03-23T20:09:00.396Z,34.45
2023-03-23T20:09:33.639Z,35.10
2023-03-23T20:10:06.407Z,30.20
2023-03-23T20:10:40.884Z,33.60
2023-03-23T20:11:14.757Z,34.10
2023-03-23T20:11:47.059Z,31.08
2023-03-23T20:12:19.380Z,28.40
2023-03-23T20:12:51.896Z,27.83
2023-03-23T20:13:24.319Z,28.73
2023-03-23T20:13:57.735Z,27.45
2023-03-23T20:14:30.477Z,27.00
2023-03-23T20:15:04.184Z,27.77
2023-03-23T20:15:36.733Z,24.53
2023-03-23T20:16:09.718Z,27.27
2023-03-23T20:16:42.061Z,27.27
2023-03-23T20:17:15.191Z,27.92
2023-03-23T20:17:48.507Z,31.05
2023-03-23T20:18:21.610Z,26.40
2023-03-23T20:18:55.543Z,24.20
2023-03-23T20:19:28.681Z,26.77
2023-03-23T20:20:01.780Z,26.30
2023-03-23T20:20:36.739Z,27.20
2023-03-23T20:21:11.174Z,31.43
2023-03-23T20:21:43.528Z,23.08
2023-03-23T20:22:16.256Z,26.50
2023-03-23T20:22:50.030Z,22.83
2023-03-23T20:23:25.177Z,21.85
2023-03-23T20:23:58.697Z,21.92
2023-03-23T20:24:31.375Z,23.42
2023-03-23T20:25:03.848Z,20.98
2023-03-23T20:25:36.978Z,22.20
2023-03-23T20:26:17.109Z,21.45
2023-03-23T20:26:49.910Z,22.07
2023-03-23T20:27:22.196Z,21.38
2023-03-23T20:27:55.588Z,21.95
2023-03-23T20:28:28.491Z,20.33
2023-03-23T20:29:00.909Z,20.77
2023-03-23T20:29:33.732Z,19.77
2023-03-23T20:30:07.814Z,20.73
2023-03-23T20:30:40.222Z,19.58
2023-03-23T20:31:19.454Z,20.90
2023-03-23T20:31:54.418Z,21.20
2023-03-23T20:32:26.746Z,26.00
2023-03-23T20:33:00.828Z,21.38
2023-03-23T20:33:33.881Z,20.83
2023-03-23T20:34:08.732Z,18.30
2023-03-23T20:34:41.375Z,20.80
2023-03-23T20:35:15.319Z,20.13
2023-03-23T20:35:48.076Z,22.83
2023-03-23T20:36:20.734Z,22.52
2023-03-23T20:36:54.815Z,20.70
2023-03-23T20:37:27.224Z,19.10
2023-03-23T20:38:00.412Z,21.00
2023-03-23T20:38:35.653Z,19.52
2023-03-23T20:39:14.478Z,19.92
2023-03-23T20:39:48.197Z,21.90
2023-03-23T20:40:20.867Z,18.98
2023-03-23T20:40:57.391Z,18.98
2023-03-23T20:41:29.703Z,17.85
2023-03-23T20:42:03.348Z,20.35
2023-03-23T20:42:36.137Z,19.95
2023-03-23T20:43:10.806Z,22.65
2023-03-23T20:43:43.942Z,20.93
2023-03-23T20:44:16.616Z,20.02
2023-03-23T20:44:49.238Z,22.63
2023-03-23T20:45:21.598Z,23.15
2023-03-23T20:45:53.964Z,22.85
2023-03-23T20:46:26.860Z,25.83
2023-03-23T20:46:59.602Z,22.88
2023-03-23T20:47:32.371Z,21.45
2023-03-23T20:48:05.984Z,23.10
2023-03-23T20:48:41.339Z,22.27
2023-03-23T20:50:01.043Z,27.05
2023-03-23T20:50:33.457Z,29.90
2023-03-23T20:51:08.369Z,33.55
2023-03-23T20:51:40.685Z,36.30
2023-03-23T20:52:14.496Z,37.50
2023-03-23T20:52:48.206Z,36.17
2023-03-23T20:53:20.840Z,35.42
2023-03-23T20:53:53.638Z,37.72
2023-03-23T20:54:26.481Z,36.17
2023-03-23T20:54:58.900Z,36.83
2023-03-23T20:56:17.341Z,31.45
2023-03-23T20:56:49.710Z,34.05
2023-03-23T20:57:22.789Z,32.72
2023-03-23T20:57:55.123Z,34.08
2023-03-23T20:58:28.528Z,32.72
2023-03-23T20:59:02.181Z,31.15
2023-03-23T20:59:35.478Z,28.70
2023-03-23T21:00:09.710Z,25.75
2023-03-23T21:00:42.649Z,29.20
2023-03-23T21:01:15.505Z,28.50
2023-03-23T21:01:48.085Z,27.45
2023-03-23T21:02:20.492Z,28.08
2023-03-23T21:02:54.308Z,26.52
2023-03-23T21:03:27.658Z,28.90
2023-03-23T21:04:00.461Z,30.77
2023-03-23T21:04:32.751Z,31.85
2023-03-23T21:05:05.435Z,30.08
2023-03-23T21:05:41.888Z,28.98
2023-03-23T21:06:16.084Z,28.83
2023-03-23T21:06:52.147Z,30.15
2023-03-23T21:07:27.817Z,29.58
2023-03-23T21:08:00.262Z,34.17
2023-03-23T21:08:34.293Z,34.85
2023-03-23T21:09:06.981Z,30.65
2023-03-23T21:09:40.527Z,36.42
2023-03-23T21:10:12.900Z,34.90
2023-03-23T21:10:45.791Z,32.58
2023-03-23T21:11:19.321Z,30.52
2023-03-23T21:11:51.624Z,34.57
2023-03-23T21:12:23.950Z,34.58
2023-03-23T21:12:57.052Z,34.70
2023-03-23T21:13:29.604Z,32.78
2023-03-23T21:14:02.542Z,35.22
2023-03-23T21:14:35.594Z,34.90
2023-03-23T21:15:08.477Z,43.42
2023-03-23T21:15:41.110Z,45.85
2023-03-23T21:16:13.566Z,53.83
2023-03-23T21:16:46.933Z,59.42
2023-03-23T21:17:19.581Z,63.00
2023-03-23T21:17:52.294Z,46.90
2023-03-23T21:18:24.661Z,55.35
2023-03-23T21:18:57.300Z,58.45
2023-03-23T21:19:30.116Z,66.47
2023-03-23T21:20:07.994Z,57.00
2023-03-23T21:20:40.794Z,55.22
2023-03-23T21:21:15.086Z,56.25
2023-03-23T21:21:56.037Z,63.08
2023-03-23T21:22:29.500Z,50.45
2023-03-23T21:23:01.874Z,39.47
2023-03-23T21:23:34.317Z,38.60
2023-03-23T21:24:06.687Z,35.85
2023-03-23T21:24:38.955Z,34.78
2023-03-23T21:25:11.376Z,34.42
2023-03-23T21:25:44.835Z,36.55
2023-03-23T21:26:17.377Z,34.67
2023-03-23T21:26:50.307Z,33.88
2023-03-23T21:27:22.665Z,33.25
2023-03-23T21:27:55.354Z,32.47
2023-03-23T21:28:28.976Z,34.67
2023-03-23T21:29:01.358Z,31.00
2023-03-23T21:29:33.656Z,32.13
2023-03-23T21:30:06.736Z,32.17
2023-03-23T21:30:46.082Z,31.33
2023-03-23T21:31:18.967Z,31.25
2023-03-23T21:32:00.936Z,33.33
2023-03-23T21:32:40.079Z,29.15
2023-03-23T21:33:14.615Z,31.67
2023-03-23T21:33:46.875Z,30.98
2023-03-23T21:34:20.695Z,31.33
2023-03-23T21:34:53.049Z,28.85
2023-03-23T21:35:26.074Z,31.27
2023-03-23T21:35:58.598Z,28.15
2023-03-23T21:36:32.281Z,29.58
2023-03-23T21:37:04.821Z,28.70
2023-03-23T21:37:38.065Z,31.58
2023-03-23T21:38:16.089Z,36.78
2023-03-23T21:38:50.210Z,38.35
2023-03-23T21:39:22.780Z,42.30
2023-03-23T21:39:55.698Z,46.30
2023-03-23T21:40:28.019Z,51.58
2023-03-23T21:41:05.633Z,54.60
2023-03-23T21:41:42.021Z,47.90
2023-03-23T21:42:15.279Z,52.80
2023-03-23T21:42:49.370Z,50.15
2023-03-23T21:43:27.840Z,50.20
2023-03-23T21:44:00.646Z,55.60
2023-03-23T21:44:35.503Z,51.17
2023-03-23T21:45:10.424Z,50.47
2023-03-23T21:45:44.404Z,49.30
2023-03-23T21:46:19.804Z,48.20
2023-03-23T21:46:52.615Z,45.58
2023-03-23T21:47:25.067Z,42.75
2023-03-23T21:47:58.293Z,40.35
2023-03-23T21:48:31.427Z,41.88
2023-03-23T21:49:04.254Z,40.25
2023-03-23T21:49:40.780Z,41.08
2023-03-23T21:50:14.246Z,38.47
2023-03-23T21:50:46.778Z,39.28
2023-03-23T21:51:24.041Z,37.47
2023-03-23T21:51:56.503Z,33.33
2023-03-23T21:52:28.810Z,34.85
2023-03-23T21:53:03.664Z,35.58
2023-03-23T21:53:37.350Z,34.22
2023-03-23T21:54:12.669Z,33.75
2023-03-23T21:54:47.700Z,36.83
2023-03-23T21:55:20.003Z,37.47
2023-03-23T21:55:52.921Z,38.67
2023-03-23T21:56:28.299Z,41.17
2023-03-23T21:57:01.815Z,39.37
2023-03-23T21:57:34.628Z,38.33
2023-03-23T21:58:08.367Z,35.78
2023-03-23T21:58:40.916Z,38.95
2023-03-23T21:59:13.525Z,39.30
2023-03-23T21:59:45.883Z,33.72
2023-03-23T22:00:19.128Z,34.78
2023-03-23T22:00:54.283Z,33.40
2023-03-23T22:01:28.419Z,36.60
2023-03-23T22:02:19.887Z,34.42
2023-03-23T22:03:11.123Z,38.10
2023-03-23T22:04:01.863Z,37.45
2023-03-23T22:04:54.999Z,32.25
2023-03-23T22:05:46.536Z,29.30
2023-03-23T22:06:23.593Z,28.70
2023-03-23T22:06:56.793Z,29.42
2023-03-23T22:07:31.085Z,28.33
2023-03-23T22:08:04.152Z,31.52
2023-03-23T22:08:37.545Z,30.23
2023-03-23T22:09:09.966Z,30.38
2023-03-23T22:09:45.109Z,29.77
2023-03-23T22:10:17.892Z,26.67
2023-03-23T22:11:00.561Z,28.02
2023-03-23T22:11:33.940Z,28.80
2023-03-23T22:12:07.083Z,30.88
2023-03-23T22:12:39.823Z,32.78
2023-03-23T22:13:13.294Z,25.23
2023-03-23T22:13:45.747Z,29.17
2023-03-23T22:14:18.158Z,23.45
2023-03-23T22:14:50.620Z,22.95
2023-03-23T22:15:28.020Z,22.50
2023-03-23T22:16:01.340Z,25.40
2023-03-23T22:16:33.922Z,23.50
2023-03-23T22:17:07.507Z,26.27
2023-03-23T22:17:40.221Z,23.95
2023-03-23T22:18:12.912Z,23.58
2023-03-23T22:18:46.546Z,24.77
2023-03-23T22:19:19.097Z,25.63
2023-03-23T22:19:51.431Z,25.88
2023-03-23T22:20:23.874Z,25.20
2023-03-23T22:20:57.650Z,25.53
2023-03-23T22:21:29.969Z,25.45
2023-03-23T22:22:04.434Z,28.35
2023-03-23T22:22:36.760Z,29.67
2023-03-23T22:23:09.272Z,29.20
2023-03-23T22:23:42.105Z,31.05
2023-03-23T22:24:14.484Z,32.40
2023-03-23T22:24:47.689Z,30.23
2023-03-23T22:25:20.230Z,32.45
2023-03-23T22:25:52.590Z,33.60
2023-03-23T22:26:27.312Z,32.50
2023-03-23T22:27:00.976Z,35.83
2023-03-23T22:27:33.277Z,33.45
2023-03-23T22:28:05.913Z,60.45
2023-03-23T22:28:39.167Z,78.43
2023-03-23T22:29:14.334Z,57.35
2023-03-23T22:29:47.115Z,72.05
2023-03-23T22:30:19.616Z,48.85
2023-03-23T22:30:52.848Z,55.30
2023-03-23T22:31:26.961Z,48.58
2023-03-23T22:31:59.835Z,41.67
2023-03-23T22:32:32.302Z,39.25
2023-03-23T22:33:09.122Z,37.28
2023-03-23T22:33:42.166Z,34.85
2023-03-23T22:34:14.583Z,36.30
2023-03-23T22:34:52.200Z,33.70
2023-03-23T22:35:29.006Z,38.65
2023-03-23T22:36:09.265Z,31.63
2023-03-23T22:36:41.905Z,28.65
2023-03-23T22:37:14.415Z,26.63
2023-03-23T22:37:46.677Z,28.47
2023-03-23T22:38:19.117Z,28.05
2023-03-23T22:38:52.228Z,30.83
2023-03-23T22:39:24.696Z,40.70
2023-03-23T22:39:57.046Z,36.88
2023-03-23T22:40:31.099Z,33.40
2023-03-23T22:41:04.911Z,35.15
2023-03-23T22:41:38.595Z,32.95
2023-03-23T22:42:12.431Z,31.33
2023-03-23T22:42:47.029Z,29.90
2023-03-23T22:43:19.325Z,28.33
2023-03-23T22:43:51.633Z,28.08
2023-03-23T22:44:24.011Z,27.60
2023-03-23T22:44:56.716Z,28.20
2023-03-23T22:45:29.281Z,26.95
2023-03-23T22:46:01.895Z,25.48
2023-03-23T22:46:34.342Z,27.77
2023-03-23T22:47:06.962Z,30.85
2023-03-23T22:47:39.348Z,27.55
2023-03-23T22:48:11.880Z,26.23
2023-03-23T22:48:44.834Z,29.23
2023-03-23T22:49:17.313Z,27.50
2023-03-23T22:49:50.079Z,29.55
2023-03-23T22:50:24.320Z,25.90
2023-03-23T22:50:56.697Z,27.23
2023-03-23T22:51:29.011Z,26.20
2023-03-23T22:52:01.478Z,26.60
2023-03-23T22:52:36.899Z,25.13
2023-03-23T22:53:09.154Z,25.77
2023-03-23T22:53:41.645Z,25.45
2023-03-23T22:54:14.110Z,23.40
2023-03-23T22:54:46.577Z,25.33
2023-03-23T22:55:18.936Z,26.70
2023-03-23T22:55:53.060Z,23.20
2023-03-23T22:56:25.927Z,22.08
2023-03-23T22:56:58.307Z,24.63
2023-03-23T22:57:31.107Z,23.45
2023-03-23T22:58:03.388Z,25.08
2023-03-23T22:58:36.307Z,26.83
2023-03-23T22:59:11.245Z,24.98
2023-03-23T22:59:43.570Z,24.83
2023-03-23T23:00:16.013Z,29.40
2023-03-23T23:00:50.021Z,29.65
2023-03-23T23:01:22.875Z,29.52
2023-03-23T23:01:55.273Z,25.25
2023-03-23T23:02:27.979Z,27.77
2023-03-23T23:03:00.584Z,27.50
2023-03-23T23:03:34.114Z,25.27
2023-03-23T23:04:07.678Z,28.63
2023-03-23T23:04:40.099Z,28.00
2023-03-23T23:05:12.742Z,26.53
2023-03-23T23:05:47.092Z,26.23
2023-03-23T23:06:19.985Z,25.50
2023-03-23T23:07:00.401Z,27.10
2023-03-23T23:07:42.988Z,28.27
2023-03-23T23:08:17.752Z,29.90
2023-03-23T23:08:51.923Z,26.55
2023-03-23T23:09:24.419Z,26.75
2023-03-23T23:09:56.665Z,25.77
2023-03-23T23:10:29.067Z,27.33
2023-03-23T23:11:03.094Z,27.20
2023-03-23T23:11:35.656Z,26.90
2023-03-23T23:12:08.403Z,28.83
2023-03-23T23:12:42.560Z,27.80
2023-03-23T23:13:15.465Z,26.55
2023-03-23T23:13:47.825Z,27.75
2023-03-23T23:14:20.150Z,25.48
2023-03-23T23:14:52.691Z,25.23
2023-03-23T23:15:25.038Z,23.98
2023-03-23T23:15:58.503Z,26.58
2023-03-23T23:16:31.194Z,26.87
2023-03-23T23:17:04.410Z,24.58